Time;durP1;ratioP1;P1;durP2;ratioP2;P2;SDS_P1;SDS_P2;PMS_P1;PMS_P2;Temp;Humidity;BMP_temperature;BMP_pressure;BME280_temperature;BME280_humidity;BME280_pressure;Samples;Min_cycle;Max_cycle;Signal;HPM_P1;HPM_P2
2021/01/16 00:00:21;;;;;;;57.83;20.48;;;;;;;-6.79;72.92;93101.56;5092206;28;20024;-45
2021/01/16 00:02:46;;;;;;;77.32;26.50;;;;;;;-6.75;72.71;93109.47;5092264;28;20077;-46
2021/01/16 00:05:15;;;;;;;125.50;38.88;;;;;;;-6.65;72.56;93092.19;5092113;28;20062;-45
2021/01/16 00:07:42;;;;;;;56.22;26.05;;;;;;;-6.63;72.06;93103.22;5092101;28;20050;-48
2021/01/16 00:10:09;;;;;;;65.22;25.63;;;;;;;-6.65;72.02;93105.59;5092205;28;20020;-46
2021/01/16 00:12:34;;;;;;;59.45;25.15;;;;;;;-6.81;73.25;93101.28;5092017;28;20131;-45
2021/01/16 00:15:00;;;;;;;46.15;18.77;;;;;;;-6.87;73.54;93108.44;5092102;28;20065;-43
2021/01/16 00:17:25;;;;;;;27.25;13.77;;;;;;;-6.79;74.58;93095.44;5092048;28;20024;-44
2021/01/16 00:19:51;;;;;;;27.90;11.40;;;;;;;-6.70;74.46;93098.16;5091855;28;20436;-41
2021/01/16 00:22:16;;;;;;;28.52;14.27;;;;;;;-6.71;74.33;93096.66;5091967;28;20024;-43
2021/01/16 00:24:41;;;;;;;29.45;13.93;;;;;;;-6.61;73.70;93096.22;5091822;28;20024;-43
2021/01/16 00:27:07;;;;;;;31.30;12.73;;;;;;;-6.54;71.97;93092.47;5092004;28;20024;-42
2021/01/16 00:29:32;;;;;;;21.25;11.52;;;;;;;-6.83;71.99;93092.16;5091688;28;20440;-41
2021/01/16 00:31:58;;;;;;;25.63;12.20;;;;;;;-6.88;72.23;93087.38;5091616;28;20500;-42
2021/01/16 00:34:23;;;;;;;29.25;13.48;;;;;;;-6.87;73.11;93084.28;5091718;28;20500;-41
2021/01/16 00:36:48;;;;;;;22.67;11.05;;;;;;;-7.08;72.87;93082.47;5091624;28;20032;-41
2021/01/16 00:39:14;;;;;;;28.13;11.18;;;;;;;-7.05;73.54;93076.97;5091817;28;20047;-44
2021/01/16 00:41:39;;;;;;;30.63;13.25;;;;;;;-6.80;71.97;93084.00;5091416;28;20400;-44
2021/01/16 00:44:05;;;;;;;35.38;13.10;;;;;;;-6.71;71.84;93083.25;5091595;28;20028;-43
2021/01/16 00:46:33;;;;;;;33.20;14.20;;;;;;;-6.82;72.01;93083.66;5091581;28;20042;-46
2021/01/16 00:48:58;;;;;;;31.67;14.70;;;;;;;-6.86;73.24;93077.72;5091598;28;20077;-46
2021/01/16 00:51:24;;;;;;;34.65;17.77;;;;;;;-6.80;73.05;93075.94;5091387;28;20016;-43
2021/01/16 00:53:49;;;;;;;35.42;17.02;;;;;;;-6.67;73.26;93067.72;5091384;28;20470;-44
2021/01/16 00:56:15;;;;;;;39.50;16.40;;;;;;;-6.65;72.98;93076.09;5091185;28;20024;-41
2021/01/16 00:58:40;;;;;;;29.98;16.25;;;;;;;-6.62;72.50;93073.22;5090427;28;20115;-43
2021/01/16 01:01:05;;;;;;;24.40;12.75;;;;;;;-6.53;71.80;93069.78;5091206;28;20028;-42
2021/01/16 01:03:31;;;;;;;34.40;14.95;;;;;;;-6.49;71.46;93065.00;5091238;28;20027;-40
2021/01/16 01:05:56;;;;;;;31.42;16.27;;;;;;;-6.56;72.80;93060.69;5090902;28;20034;-40
2021/01/16 01:08:26;;;;;;;37.53;15.07;;;;;;;-6.59;73.45;93058.94;5091081;28;20020;-40
2021/01/16 01:10:52;;;;;;;30.77;14.98;;;;;;;-6.51;72.77;93067.41;5091237;28;20028;-41
2021/01/16 01:13:17;;;;;;;31.92;15.65;;;;;;;-6.50;73.59;93061.59;5091167;28;20077;-41
2021/01/16 01:15:42;;;;;;;38.80;15.65;;;;;;;-6.49;74.05;93060.41;5091046;28;20031;-43
2021/01/16 01:18:08;;;;;;;30.40;16.10;;;;;;;-6.40;74.12;93057.69;5091002;28;20032;-42
2021/01/16 01:20:34;;;;;;;24.63;14.05;;;;;;;-6.48;73.72;93061.16;5090806;28;20181;-40
2021/01/16 01:23:00;;;;;;;37.85;14.57;;;;;;;-6.66;74.12;93061.16;5091033;28;20742;-43
2021/01/16 01:25:26;;;;;;;42.50;16.30;;;;;;;-6.78;74.01;93054.00;5090839;28;20416;-43
2021/01/16 01:27:56;;;;;;;36.75;16.77;;;;;;;-6.91;73.79;93050.72;5090887;28;20032;-44
2021/01/16 01:30:24;;;;;;;34.53;15.48;;;;;;;-6.95;73.60;93056.22;5090642;28;20090;-48
2021/01/16 01:32:49;;;;;;;27.53;15.50;;;;;;;-6.73;74.44;93061.44;5090784;28;20024;-46
2021/01/16 01:35:17;;;;;;;28.45;16.48;;;;;;;-6.67;74.38;93057.72;5090710;28;20427;-48
2021/01/16 01:37:44;;;;;;;48.65;21.13;;;;;;;-6.63;74.32;93066.38;5090727;28;20028;-45
2021/01/16 01:40:11;;;;;;;46.97;18.50;;;;;;;-6.57;74.56;93061.16;5090700;28;20056;-46
2021/01/16 01:42:37;;;;;;;26.75;15.25;;;;;;;-6.47;74.79;93065.31;5090619;28;20114;-46
2021/01/16 01:45:07;;;;;;;53.92;23.08;;;;;;;-6.35;74.09;93059.03;5090623;28;20031;-43
2021/01/16 01:47:35;;;;;;;49.17;22.40;;;;;;;-6.25;73.35;93061.25;5090703;28;20440;-44
2021/01/16 01:50:00;;;;;;;43.03;19.73;;;;;;;-6.32;73.20;93053.50;5090628;28;20040;-44
2021/01/16 01:52:27;;;;;;;28.75;15.35;;;;;;;-6.32;73.61;93063.50;5089523;28;20515;-43
2021/01/16 01:54:52;;;;;;;23.85;11.85;;;;;;;-6.35;73.54;93059.03;5089347;28;20032;-44
2021/01/16 01:57:19;;;;;;;21.30;11.35;;;;;;;-6.25;72.73;93063.94;5090491;28;20035;-44
2021/01/16 01:59:45;;;;;;;18.15;9.25;;;;;;;-6.34;73.77;93061.28;5090556;28;20515;-43
2021/01/16 02:02:11;;;;;;;15.40;7.90;;;;;;;-6.26;73.63;93061.72;5090379;28;20066;-44
2021/01/16 02:04:37;;;;;;;14.40;6.82;;;;;;;-6.26;73.28;93050.97;5090797;28;20096;-45
2021/01/16 02:07:39;;;;;;;20.50;7.03;;;;;;;-6.04;73.97;93053.44;5089170;28;20107;-43
2021/01/16 02:10:11;;;;;;;17.00;8.88;;;;;;;-6.04;73.04;93043.44;5093792;28;20504;-46
2021/01/16 02:12:41;;;;;;;19.60;9.05;;;;;;;-6.05;72.65;93050.00;5094406;28;20035;-45
2021/01/16 02:15:25;;;;;;;21.27;9.57;;;;;;;-5.98;73.33;93048.94;5094368;28;20032;-47
2021/01/16 02:17:54;;;;;;;22.27;11.98;;;;;;;-5.95;73.54;93042.66;5093102;28;20055;-47
2021/01/16 02:20:36;;;;;;;32.38;15.93;;;;;;;-5.89;72.40;93035.47;5094089;28;20040;-45
2021/01/16 02:23:23;;;;;;;25.20;10.98;;;;;;;-5.91;71.06;93035.91;5094376;28;20516;-46
2021/01/16 02:25:54;;;;;;;22.83;10.70;;;;;;;-6.05;71.99;93036.56;5093043;28;20028;-42
2021/01/16 02:28:24;;;;;;;32.85;14.40;;;;;;;-5.95;72.42;93034.59;5094384;28;20055;-43
2021/01/16 02:30:51;;;;;;;25.90;13.95;;;;;;;-6.00;72.34;93027.16;5092997;28;20020;-40
2021/01/16 02:33:19;;;;;;;38.55;14.88;;;;;;;-5.95;72.20;93023.84;5092788;28;20031;-42
2021/01/16 02:35:59;;;;;;;29.35;12.98;;;;;;;-5.92;72.94;93031.75;5092793;28;20071;-43
2021/01/16 02:38:33;;;;;;;21.33;11.18;;;;;;;-5.85;72.05;93031.44;5092773;28;20050;-44
2021/01/16 02:41:10;;;;;;;19.65;12.02;;;;;;;-6.04;72.78;93034.63;5093984;28;20408;-42
2021/01/16 02:43:40;;;;;;;16.52;9.35;;;;;;;-6.08;73.27;93034.03;5092866;28;20412;-40
2021/01/16 02:46:29;;;;;;;25.17;9.52;;;;;;;-5.91;72.26;93037.88;5092666;28;20027;-39
2021/01/16 02:49:05;;;;;;;15.95;9.30;;;;;;;-5.83;72.36;93033.63;5092571;28;20459;-39
2021/01/16 02:52:02;;;;;;;19.88;10.80;;;;;;;-5.89;72.87;93033.53;5092666;28;20054;-40
2021/01/16 02:54:30;;;;;;;40.67;15.48;;;;;;;-5.92;73.17;93031.00;5090516;28;20393;-40
2021/01/16 02:56:55;;;;;;;61.10;23.17;;;;;;;-5.97;73.33;93037.75;5092373;28;20032;-40
2021/01/16 02:59:20;;;;;;;73.72;24.10;;;;;;;-5.89;73.51;93040.84;5092375;28;20032;-40
2021/01/16 03:01:46;;;;;;;56.92;22.58;;;;;;;-5.84;73.56;93037.53;5093751;28;20500;-43
2021/01/16 03:04:11;;;;;;;37.63;16.27;;;;;;;-5.85;74.88;93046.81;5092170;28;20054;-43
2021/01/16 03:06:46;;;;;;;25.95;13.77;;;;;;;-5.77;74.40;93034.50;5093474;28;20024;-44
2021/01/16 03:09:11;;;;;;;26.02;11.98;;;;;;;-5.86;73.93;93021.88;5093392;28;20168;-42
2021/01/16 03:11:37;;;;;;;21.15;9.93;;;;;;;-5.99;74.19;93017.88;5093418;28;20032;-42
2021/01/16 03:14:05;;;;;;;26.35;12.73;;;;;;;-6.21;74.75;93018.84;5093316;28;20200;-42
2021/01/16 03:16:33;;;;;;;32.05;13.50;;;;;;;-6.40;74.70;93024.72;5092023;28;20168;-43
2021/01/16 03:19:01;;;;;;;30.08;14.27;;;;;;;-6.46;75.27;93021.16;5092152;28;20096;-42
2021/01/16 03:21:26;;;;;;;25.30;13.32;;;;;;;-6.41;75.52;93023.25;5090960;28;20110;-42
2021/01/16 03:23:51;;;;;;;27.40;13.73;;;;;;;-6.33;75.59;93027.84;5093081;28;20084;-43
2021/01/16 03:26:17;;;;;;;25.65;12.90;;;;;;;-6.20;76.07;93022.28;5093152;28;20466;-44
2021/01/16 03:28:42;;;;;;;27.58;13.23;;;;;;;-6.10;75.59;93020.31;5092951;28;20047;-45
2021/01/16 03:31:08;;;;;;;21.77;9.90;;;;;;;-6.05;75.76;93020.47;5093069;28;20032;-41
2021/01/16 03:33:33;;;;;;;20.23;11.02;;;;;;;-6.02;76.00;93029.56;5092919;28;20477;-43
2021/01/16 03:35:59;;;;;;;25.92;12.80;;;;;;;-5.84;76.47;93024.84;5092711;28;20118;-42
2021/01/16 03:38:24;;;;;;;18.83;10.85;;;;;;;-5.76;75.77;93022.56;5092874;28;20107;-41
2021/01/16 03:40:49;;;;;;;23.63;11.43;;;;;;;-5.78;75.65;93025.69;5092755;28;20408;-42
2021/01/16 03:43:15;;;;;;;23.00;11.75;;;;;;;-5.74;74.80;93017.47;5092658;28;20031;-43
2021/01/16 03:45:40;;;;;;;22.58;11.73;;;;;;;-5.73;73.87;93017.00;5092706;28;20028;-43
2021/01/16 03:48:06;;;;;;;21.00;11.38;;;;;;;-5.76;73.87;93023.28;5092719;28;20035;-44
2021/01/16 03:50:32;;;;;;;18.65;10.43;;;;;;;-5.74;74.33;93020.88;5092679;28;20032;-45
2021/01/16 03:52:57;;;;;;;25.90;12.30;;;;;;;-5.68;74.05;93015.66;5092563;28;20428;-43
2021/01/16 03:55:23;;;;;;;23.70;12.07;;;;;;;-5.77;74.48;93021.06;5092496;28;20028;-45
2021/01/16 03:57:48;;;;;;;24.10;11.18;;;;;;;-5.75;74.69;93013.28;5092474;28;20036;-44
2021/01/16 04:00:14;;;;;;;22.30;10.77;;;;;;;-5.69;74.68;93011.44;5092304;28;20034;-44
2021/01/16 04:02:39;;;;;;;20.98;11.93;;;;;;;-5.67;75.13;93011.75;5092455;28;20076;-43
2021/01/16 04:05:06;;;;;;;22.17;10.35;;;;;;;-5.66;74.47;93015.94;5092372;28;20068;-43
2021/01/16 04:07:31;;;;;;;19.92;10.38;;;;;;;-5.63;74.71;93009.66;5092267;28;20035;-42
2021/01/16 04:09:57;;;;;;;24.33;11.57;;;;;;;-5.48;73.74;93005.81;5092170;28;20496;-44
2021/01/16 04:12:23;;;;;;;23.88;11.48;;;;;;;-5.52;73.51;93005.25;5092213;28;20110;-42
2021/01/16 04:14:49;;;;;;;28.75;13.60;;;;;;;-5.59;74.56;93010.22;5092151;28;20112;-42
2021/01/16 04:17:14;;;;;;;35.92;15.25;;;;;;;-5.59;74.15;93007.53;5092400;28;20111;-44
2021/01/16 04:19:40;;;;;;;22.35;10.23;;;;;;;-5.52;73.48;93007.19;5092103;28;20028;-43
2021/01/16 04:22:05;;;;;;;18.15;9.88;;;;;;;-5.38;73.13;93011.88;5091918;28;20036;-44
2021/01/16 04:24:31;;;;;;;20.95;10.25;;;;;;;-5.32;72.36;93012.75;5091991;28;20032;-40
2021/01/16 04:26:57;;;;;;;25.63;10.23;;;;;;;-5.39;72.47;93013.09;5091851;28;20078;-44
2021/01/16 04:29:22;;;;;;;19.88;10.40;;;;;;;-5.56;73.27;93014.66;5091778;28;20071;-44
2021/01/16 04:31:48;;;;;;;27.98;12.05;;;;;;;-5.75;73.80;93019.41;5091636;28;20413;-43
2021/01/16 04:34:14;;;;;;;20.58;10.77;;;;;;;-5.64;74.07;93018.91;5091660;28;20048;-44
2021/01/16 04:36:40;;;;;;;21.48;11.20;;;;;;;-5.61;74.62;93021.41;5091621;28;20103;-44
2021/01/16 04:39:06;;;;;;;25.25;12.32;;;;;;;-5.56;74.17;93030.81;5091521;28;20524;-44
2021/01/16 04:41:32;;;;;;;29.38;12.60;;;;;;;-5.57;74.90;93035.47;5091565;28;20119;-42
2021/01/16 04:43:58;;;;;;;20.58;10.40;;;;;;;-5.57;74.66;93037.41;5090524;28;20084;-42
2021/01/16 04:46:26;;;;;;;22.58;10.82;;;;;;;-5.84;75.19;93024.09;5091504;28;20033;-41
2021/01/16 04:49:02;;;;;;;19.13;10.85;;;;;;;-5.99;75.91;93021.31;5090205;28;20084;-44
2021/01/16 04:51:43;;;;;;;18.02;10.05;;;;;;;-5.83;76.05;93018.25;5091411;28;20465;-44
2021/01/16 04:54:13;;;;;;;19.85;10.98;;;;;;;-5.77;76.07;93021.81;5090396;28;20129;-45
2021/01/16 04:56:40;;;;;;;18.80;9.57;;;;;;;-5.71;75.56;93021.91;5091563;28;20073;-42
2021/01/16 04:59:05;;;;;;;18.20;9.70;;;;;;;-5.75;75.94;93024.03;5091261;28;20118;-44
2021/01/16 05:01:31;;;;;;;19.33;10.05;;;;;;;-5.74;75.97;93025.53;5088978;28;20103;-45
2021/01/16 05:03:57;;;;;;;15.15;9.13;;;;;;;-5.81;75.56;93015.84;5090273;28;20027;-45
2021/01/16 05:06:25;;;;;;;19.42;10.65;;;;;;;-5.81;76.31;93015.84;5091218;28;20024;-44
2021/01/16 05:08:52;;;;;;;21.35;11.02;;;;;;;-5.57;75.16;93018.56;5090980;28;20038;-43
2021/01/16 05:11:26;;;;;;;17.30;10.35;;;;;;;-5.48;75.33;93021.22;5091217;28;20504;-44
2021/01/16 05:14:11;;;;;;;20.35;10.90;;;;;;;-5.48;75.71;93019.25;5091026;28;20087;-46
2021/01/16 05:16:59;;;;;;;17.33;9.20;;;;;;;-5.34;75.27;93017.09;5090905;28;20031;-44
2021/01/16 05:19:28;;;;;;;16.08;8.52;;;;;;;-5.37;74.54;93022.19;5091023;28;20111;-45
2021/01/16 05:21:53;;;;;;;;;;;;;;;-5.29;75.17;93027.97;5091178;28;20028;-47
2021/01/16 05:24:19;;;;;;;22.67;11.63;;;;;;;-5.38;74.75;93026.09;5091112;28;20041;-45
2021/01/16 05:27:00;;;;;;;19.73;11.13;;;;;;;-5.38;75.20;93026.09;5090839;28;20024;-45
2021/01/16 05:29:26;;;;;;;17.85;9.02;;;;;;;-5.34;75.50;93031.28;5090803;28;20052;-42
2021/01/16 05:31:53;;;;;;;17.80;10.00;;;;;;;-5.23;74.71;93030.78;5090798;28;20020;-43
2021/01/16 05:34:21;;;;;;;16.55;8.07;;;;;;;-5.33;74.67;93022.03;5090858;28;20031;-41
2021/01/16 05:36:50;;;;;;;14.80;9.20;;;;;;;-5.28;74.74;93034.84;5090866;28;20038;-42
2021/01/16 05:39:18;;;;;;;12.90;8.15;;;;;;;-5.27;74.58;93039.03;5090697;28;20065;-42
2021/01/16 05:41:44;;;;;;;18.52;9.73;;;;;;;-5.11;74.25;93035.19;5090653;28;20039;-41
2021/01/16 05:44:10;;;;;;;24.30;11.35;;;;;;;-5.10;74.18;93028.59;5090174;28;20137;-43
2021/01/16 05:46:36;;;;;;;19.17;10.00;;;;;;;-5.18;75.46;93028.22;5090869;28;20539;-43
2021/01/16 05:49:03;;;;;;;15.77;8.70;;;;;;;-5.11;75.00;93022.47;5090598;28;20043;-43
2021/01/16 05:51:29;;;;;;;23.98;10.50;;;;;;;-5.07;74.73;93033.81;5090640;28;20426;-43
2021/01/16 05:53:58;;;;;;;16.90;8.73;;;;;;;-4.98;74.93;93031.06;5090573;28;20028;-46
2021/01/16 05:56:24;;;;;;;25.83;12.50;;;;;;;-5.10;74.66;93023.22;5089522;28;20047;-45
2021/01/16 05:58:53;;;;;;;17.67;9.45;;;;;;;-5.17;75.16;93027.00;5089223;28;20109;-44
2021/01/16 06:01:23;;;;;;;17.40;10.00;;;;;;;-5.16;74.44;93025.81;5089276;28;20024;-47
2021/01/16 06:03:53;;;;;;;16.92;9.00;;;;;;;-5.23;75.01;93026.16;5090661;28;20035;-45
2021/01/16 06:06:19;;;;;;;18.77;8.30;;;;;;;-5.17;75.42;93026.25;5090537;28;20447;-47
2021/01/16 06:08:52;;;;;;;18.40;9.63;;;;;;;-5.18;75.75;93024.78;5090433;28;20050;-45
2021/01/16 06:11:18;;;;;;;32.60;13.13;;;;;;;-5.19;76.50;93028.66;5090591;28;20416;-45
2021/01/16 06:13:46;;;;;;;26.00;13.38;;;;;;;-5.21;75.66;93023.00;5089192;28;20477;-43
2021/01/16 06:16:19;;;;;;;35.70;17.30;;;;;;;-5.18;75.71;93027.47;5090371;28;20484;-46
2021/01/16 06:18:51;;;;;;;16.60;8.70;;;;;;;-5.18;75.22;93033.59;5089177;28;20036;-46
2021/01/16 06:21:26;;;;;;;14.98;7.07;;;;;;;-5.14;74.99;93023.41;5090274;28;20485;-41
2021/01/16 06:23:58;;;;;;;13.10;7.53;;;;;;;-5.12;75.35;93023.69;5090303;28;20042;-42
2021/01/16 06:26:24;;;;;;;16.63;9.75;;;;;;;-5.35;76.00;93019.06;5090243;28;20071;-43
2021/01/16 06:28:56;;;;;;;18.55;9.32;;;;;;;-5.29;76.26;93024.53;5090087;28;20044;-42
2021/01/16 06:31:33;;;;;;;27.27;13.48;;;;;;;-5.19;76.59;93024.03;5090208;28;20035;-42
2021/01/16 06:34:05;;;;;;;31.25;12.68;;;;;;;-5.10;75.78;93021.28;5090362;28;20020;-42
2021/01/16 06:36:32;;;;;;;33.10;13.63;;;;;;;-5.07;76.29;93015.00;5090278;28;20051;-43
2021/01/16 06:39:01;;;;;;;33.25;14.00;;;;;;;-4.86;75.81;93022.00;5090306;28;20094;-43
2021/01/16 06:41:28;;;;;;;29.60;13.93;;;;;;;-4.93;74.92;93024.28;5090144;28;20043;-47
2021/01/16 06:43:54;;;;;;;36.22;16.77;;;;;;;-4.96;75.10;93020.56;5090136;28;20401;-45
2021/01/16 06:46:43;;;;;;;31.55;16.80;;;;;;;-4.98;75.44;93022.97;5090032;28;20044;-43
2021/01/16 06:49:26;;;;;;;37.30;17.13;;;;;;;-5.03;76.57;93030.94;5090096;28;20063;-43
2021/01/16 06:51:53;;;;;;;33.67;17.30;;;;;;;-5.19;77.28;93021.34;5090010;28;20102;-42
2021/01/16 06:54:25;;;;;;;33.65;16.10;;;;;;;-5.26;77.78;93024.34;5090066;28;20483;-41
2021/01/16 06:57:10;;;;;;;34.28;17.58;;;;;;;-5.27;78.05;93025.56;5092428;28;20039;-44
2021/01/16 06:59:37;;;;;;;19.25;10.55;;;;;;;-5.42;78.35;93025.53;5093630;28;20028;-42
2021/01/16 07:02:30;;;;;;;32.17;17.65;;;;;;;-5.46;80.38;93034.97;5093404;28;20481;-42
2021/01/16 07:05:00;;;;;;;26.67;11.93;;;;;;;-5.22;80.13;93033.03;5093406;28;20053;-41
2021/01/16 07:07:36;;;;;;;30.25;14.48;;;;;;;-5.04;80.17;93030.19;5093527;28;20071;-42
2021/01/16 07:10:08;;;;;;;30.50;10.95;;;;;;;-5.03;79.97;93036.34;5093380;28;20038;-43
2021/01/16 07:12:34;;;;;;;39.90;17.42;;;;;;;-4.83;79.90;93037.22;5092911;28;20444;-43
2021/01/16 07:15:00;;;;;;;32.33;15.32;;;;;;;-4.77;78.86;93018.50;5091271;28;20032;-43
2021/01/16 07:17:26;;;;;;;25.35;13.57;;;;;;;-4.53;78.60;93021.88;5092076;28;20026;-44
2021/01/16 07:19:55;;;;;;;68.68;34.13;;;;;;;-4.49;78.62;93019.75;5092040;28;20553;-44
2021/01/16 07:22:25;;;;;;;29.58;14.60;;;;;;;-4.27;77.38;93016.69;5091795;28;20024;-45
2021/01/16 07:24:51;;;;;;;44.58;18.65;;;;;;;-4.10;76.89;93031.19;5092082;28;20043;-43
2021/01/16 07:27:17;;;;;;;45.97;20.80;;;;;;;-3.94;75.96;93028.75;5091399;28;20032;-40
2021/01/16 07:29:42;;;;;;;39.95;17.85;;;;;;;-3.82;75.90;93040.47;5092344;28;20581;-41
2021/01/16 07:32:15;;;;;;;27.60;14.85;;;;;;;-3.66;76.22;93036.56;5092582;28;20107;-41
2021/01/16 07:34:43;;;;;;;26.63;12.82;;;;;;;-3.57;75.79;93029.06;5092557;28;20056;-40
2021/01/16 07:37:10;;;;;;;21.58;11.63;;;;;;;-3.47;75.06;93033.16;5092458;28;20058;-41
2021/01/16 07:39:38;;;;;;;20.95;11.02;;;;;;;-3.33;74.37;93029.66;5092442;28;20039;-43
2021/01/16 07:42:09;;;;;;;22.60;12.20;;;;;;;-3.29;73.78;93032.19;5092613;28;20089;-44
2021/01/16 07:44:40;;;;;;;23.38;11.30;;;;;;;-3.22;73.40;93027.13;5092269;28;20063;-40
2021/01/16 07:47:19;;;;;;;19.63;10.88;;;;;;;-3.26;73.51;93033.94;5092271;28;20551;-41
2021/01/16 07:49:51;;;;;;;;;;;;;;;-3.22;73.08;93026.38;5092777;28;20038;-42
2021/01/16 07:52:22;;;;;;;17.63;10.68;;;;;;;-3.47;73.16;93032.41;5092189;28;19923;-41
2021/01/16 07:55:02;;;;;;;18.65;10.75;;;;;;;-3.63;73.73;93030.94;5092153;28;20020;-41
2021/01/16 07:57:30;;;;;;;17.33;9.32;;;;;;;-3.52;74.18;93035.75;5092136;28;20027;-41
2021/01/16 07:59:56;;;;;;;20.15;10.13;;;;;;;-3.53;74.90;93024.22;5091900;28;20020;-41
2021/01/16 08:02:28;;;;;;;19.90;10.55;;;;;;;-3.33;74.06;93032.38;5090627;28;20028;-44
2021/01/16 08:05:05;;;;;;;34.90;13.48;;;;;;;-3.08;74.22;93029.03;5091948;28;20027;-44
2021/01/16 08:07:58;;;;;;;30.52;15.15;;;;;;;-2.86;74.29;93025.13;5090189;28;20028;-39
2021/01/16 08:10:25;;;;;;;26.88;12.77;;;;;;;-2.63;73.29;93018.75;5061514;28;20043;-41
2021/01/16 08:12:56;;;;;;;29.45;13.80;;;;;;;-2.77;72.36;92987.91;5091656;28;20093;-42
2021/01/16 08:15:28;;;;;;;39.83;19.08;;;;;;;-2.39;71.51;93024.66;5090400;28;20039;-41
2021/01/16 08:17:54;;;;;;;26.73;14.30;;;;;;;-2.30;70.86;93014.44;5091729;28;20036;-43
2021/01/16 08:20:27;;;;;;;30.38;15.77;;;;;;;-2.26;70.43;93022.34;5091474;28;20081;-42
2021/01/16 08:22:55;;;;;;;20.40;12.52;;;;;;;-2.25;69.93;93025.81;5090234;28;20024;-42
2021/01/16 08:25:25;;;;;;;24.77;13.87;;;;;;;-2.02;70.45;93027.47;5092102;28;20031;-42
2021/01/16 08:27:55;;;;;;;27.38;12.63;;;;;;;-1.85;70.17;93025.66;5091427;28;20797;-41
2021/01/16 08:30:23;;;;;;;21.33;10.27;;;;;;;-1.73;70.11;93019.84;5091296;28;20056;-44
2021/01/16 08:33:10;;;;;;;25.90;11.82;;;;;;;-1.55;68.19;93021.47;5091538;28;20035;-41
2021/01/16 08:35:48;;;;;;;69.65;30.55;;;;;;;-1.40;66.76;93010.50;5091383;28;20036;-41
2021/01/16 08:38:16;;;;;;;26.42;14.32;;;;;;;-1.33;66.44;93018.91;5091220;28;20024;-41
2021/01/16 08:41:06;;;;;;;21.05;11.95;;;;;;;-1.25;65.35;93019.94;5091148;28;20039;-43
2021/01/16 08:43:42;;;;;;;29.10;14.13;;;;;;;-1.22;65.61;93012.84;5091142;28;20032;-42
2021/01/16 08:46:10;;;;;;;29.90;14.98;;;;;;;-1.15;65.42;93012.38;5091251;28;20028;-42
2021/01/16 08:48:37;;;;;;;26.30;12.63;;;;;;;-1.11;64.28;93010.19;5091082;28;20058;-43
2021/01/16 08:51:28;;;;;;;45.47;22.55;;;;;;;-1.17;63.67;93006.72;5111163;28;20035;-42
2021/01/16 08:54:15;;;;;;;29.63;13.95;;;;;;;-1.15;63.49;93006.97;5111387;28;20146;-41
2021/01/16 08:57:04;;;;;;;15.70;10.13;;;;;;;-1.00;63.85;93002.13;5111407;28;20118;-42
2021/01/16 08:59:33;;;;;;;23.30;11.25;;;;;;;-1.15;63.57;93001.56;5105618;28;20532;-42
2021/01/16 09:02:08;;;;;;;24.38;12.18;;;;;;;-1.23;62.91;92995.09;5111367;28;20186;-43
2021/01/16 09:04:35;;;;;;;37.38;18.38;;;;;;;-1.39;62.99;92991.06;5110867;28;20455;-45
2021/01/16 09:07:10;;;;;;;31.67;14.57;;;;;;;-1.21;64.09;92992.66;5111065;28;20031;-44
2021/01/16 09:09:35;;;;;;;22.42;12.88;;;;;;;-1.27;63.09;92994.56;5110042;28;20053;-42
2021/01/16 09:12:10;;;;;;;18.73;11.18;;;;;;;-1.25;63.60;92997.53;5111047;28;20074;-42
2021/01/16 09:14:38;;;;;;;19.83;10.90;;;;;;;-1.01;63.68;92990.53;5111104;28;20474;-43
2021/01/16 09:17:32;;;;;;;19.52;9.77;;;;;;;-0.98;62.61;92984.16;5110949;28;20106;-42
2021/01/16 09:19:58;;;;;;;20.08;9.75;;;;;;;-0.85;62.47;92987.16;5100911;28;20510;-43
2021/01/16 09:22:30;;;;;;;20.13;9.05;;;;;;;-0.89;62.05;92986.63;5110832;28;20031;-42
2021/01/16 09:25:24;;;;;;;24.13;13.98;;;;;;;-0.72;61.47;92984.00;5110865;28;20074;-43
2021/01/16 09:27:51;;;;;;;16.77;9.50;;;;;;;-0.70;62.21;92984.25;5109589;28;20522;-42
2021/01/16 09:30:24;;;;;;;20.48;9.85;;;;;;;-0.57;61.34;92981.84;5098275;28;20513;-43
2021/01/16 09:32:50;;;;;;;21.20;9.48;;;;;;;-0.64;61.21;92984.28;5090381;28;20074;-43
2021/01/16 09:35:39;;;;;;;17.70;8.77;;;;;;;-0.59;62.43;92980.84;5090332;28;20071;-42
2021/01/16 09:38:18;;;;;;;19.77;9.25;;;;;;;-0.65;62.29;92972.69;5090408;28;20453;-43
2021/01/16 09:40:45;;;;;;;9.73;6.25;;;;;;;-0.60;60.14;92971.22;5090187;28;20028;-41
2021/01/16 09:43:22;;;;;;;10.52;6.32;;;;;;;-0.65;59.77;92971.97;5090404;28;20490;-42
2021/01/16 09:45:55;;;;;;;15.77;7.55;;;;;;;-0.64;58.68;92963.34;5090187;28;20067;-42
2021/01/16 09:48:38;;;;;;;18.10;8.32;;;;;;;-0.70;58.62;92959.88;5090242;28;20023;-44
2021/01/16 09:51:04;;;;;;;17.30;8.43;;;;;;;-0.86;59.96;92958.56;5090128;28;20113;-43
2021/01/16 09:53:29;;;;;;;14.52;7.13;;;;;;;-1.02;59.59;92961.94;5090367;28;20410;-43
2021/01/16 09:55:55;;;;;;;14.60;7.57;;;;;;;-1.02;59.69;92961.94;5089462;28;20043;-44
2021/01/16 09:58:32;;;;;;;13.80;7.47;;;;;;;-1.06;59.30;92958.00;5090268;28;20036;-43
2021/01/16 10:01:20;;;;;;;10.85;6.45;;;;;;;-1.03;58.78;92960.47;5090231;28;20032;-42
2021/01/16 10:03:46;;;;;;;13.10;7.45;;;;;;;-1.45;61.54;92946.25;5090163;28;20450;-43
2021/01/16 10:06:13;;;;;;;8.88;6.47;;;;;;;-1.52;61.17;92945.44;5089996;28;20413;-42
2021/01/16 10:08:40;;;;;;;13.95;7.78;;;;;;;-1.67;62.30;92955.69;5090186;28;20477;-42
2021/01/16 10:11:06;;;;;;;9.55;5.82;;;;;;;-1.70;61.98;92953.22;5088894;28;20152;-44
2021/01/16 10:13:36;;;;;;;9.15;5.55;;;;;;;-1.94;62.19;92953.53;5089939;28;20059;-43
2021/01/16 10:16:04;;;;;;;9.38;5.35;;;;;;;-1.92;62.52;92950.34;5089996;28;20035;-43
2021/01/16 10:18:31;;;;;;;12.90;5.25;;;;;;;-1.97;62.19;92945.66;5089896;28;20039;-45
2021/01/16 10:21:12;;;;;;;13.05;6.60;;;;;;;-2.14;63.09;92948.22;5089858;28;20028;-44
2021/01/16 10:23:40;;;;;;;10.15;6.38;;;;;;;-2.23;62.70;92945.66;5089907;28;20035;-43
2021/01/16 10:26:10;;;;;;;8.85;5.35;;;;;;;-2.20;62.97;92938.56;5103981;28;20120;-43
2021/01/16 10:28:38;;;;;;;9.23;4.72;;;;;;;-2.21;61.88;92939.81;5109479;28;20539;-40
2021/01/16 10:31:05;;;;;;;12.85;6.07;;;;;;;-2.21;62.52;92937.09;5093181;28;20050;-41
2021/01/16 10:34:06;;;;;;;8.00;5.35;;;;;;;-2.22;62.73;92935.59;5107489;28;20042;-42
2021/01/16 10:36:33;;;;;;;10.32;5.25;;;;;;;-2.33;63.29;92925.44;5114060;28;20023;-45
2021/01/16 10:39:08;;;;;;;14.65;7.32;;;;;;;-2.22;63.33;92920.13;5112841;28;20028;-42
2021/01/16 10:41:36;;;;;;;9.40;6.00;;;;;;;-2.41;62.20;92924.41;5112941;28;20084;-42
2021/01/16 10:44:05;;;;;;;10.05;5.00;;;;;;;-2.49;62.96;92924.06;5112987;28;20042;-43
2021/01/16 10:46:48;;;;;;;11.98;6.47;;;;;;;-2.52;62.42;92916.94;5112611;28;20027;-44
2021/01/16 10:49:19;;;;;;;12.90;7.13;;;;;;;-2.64;63.29;92918.03;5112284;28;20027;-42
2021/01/16 10:51:54;;;;;;;11.68;5.95;;;;;;;-2.64;62.78;92922.72;5112557;28;20412;-44
2021/01/16 10:54:20;;;;;;;9.02;5.65;;;;;;;-2.72;63.47;92916.22;5112271;28;20036;-42
2021/01/16 10:57:01;;;;;;;16.95;6.85;;;;;;;-2.66;63.29;92912.38;5112303;28;20032;-41
2021/01/16 10:59:29;;;;;;;15.75;8.52;;;;;;;-2.52;62.90;92918.88;5111622;28;20510;-42
2021/01/16 11:01:55;;;;;;;14.77;8.77;;;;;;;-2.72;63.73;92916.22;5096055;28;20028;-41
2021/01/16 11:04:23;;;;;;;15.43;10.65;;;;;;;-2.77;62.94;92903.44;5101923;28;20118;-41
2021/01/16 11:06:54;;;;;;;15.05;6.05;;;;;;;-2.68;62.43;92906.69;5113486;27;20111;-43
2021/01/16 11:09:35;;;;;;;10.48;5.78;;;;;;;-2.57;62.52;92911.47;5113484;28;20031;-44
2021/01/16 11:12:06;;;;;;;7.90;5.32;;;;;;;-2.48;63.17;92908.59;5113224;28;20588;-42
2021/01/16 11:14:38;;;;;;;9.50;5.75;;;;;;;-2.53;62.39;92887.66;5113277;28;20024;-40
2021/01/16 11:17:08;;;;;;;15.85;6.85;;;;;;;-2.40;60.49;92915.03;5113165;28;20023;-40
2021/01/16 11:19:36;;;;;;;14.63;7.45;;;;;;;-2.41;61.23;92902.78;5113146;28;20076;-42
2021/01/16 11:22:09;;;;;;;14.05;7.18;;;;;;;-2.49;61.14;92899.75;5113071;28;20508;-42
2021/01/16 11:24:53;;;;;;;12.85;6.32;;;;;;;-2.47;61.29;92905.41;5103993;28;20035;-40
2021/01/16 11:27:23;;;;;;;20.42;8.90;;;;;;;-2.64;62.31;92893.72;5113063;28;20028;-40
2021/01/16 11:29:48;;;;;;;10.27;6.18;;;;;;;-2.45;62.33;92902.25;5112833;28;20493;-41
2021/01/16 11:32:15;;;;;;;12.07;7.93;;;;;;;-2.43;61.59;92891.69;5103968;28;20026;-41
2021/01/16 11:34:59;;;;;;;9.65;5.65;;;;;;;-2.38;62.04;92893.69;5112769;28;20540;-41